Time;durP1;ratioP1;P1;durP2;ratioP2;P2;SDS_P1;SDS_P2;PMS_P1;PMS_P2;Temp;Humidity;BMP_temperature;BMP_pressure;BME280_temperature;BME280_humidity;BME280_pressure;Samples;Min_cycle;Max_cycle;Signal;HPM_P1;HPM_P2
2022/10/02 00:02:14;;;;;;;5.33;3.00;;;;;;;;;;4988247;28;20211;-52
2022/10/02 00:04:40;;;;;;;5.03;2.70;;;;;;;;;;4989114;28;20187;-53
2022/10/02 00:07:07;;;;;;;5.63;2.87;;;;;;;;;;4981480;28;20637;-53
2022/10/02 00:09:42;;;;;;;7.27;3.13;;;;;;;;;;4976384;28;20183;-53
2022/10/02 00:12:10;;;;;;;4.33;2.57;;;;;;;;;;4971166;28;20223;-52
2022/10/02 00:14:38;;;;;;;4.70;2.60;;;;;;;;;;4972829;28;20195;-53
2022/10/02 00:17:04;;;;;;;3.07;2.60;;;;;;;;;;4979362;28;20622;-53
2022/10/02 00:19:30;;;;;;;4.77;3.03;;;;;;;;;;4969619;28;20657;-53
2022/10/02 00:22:15;;;;;;;7.17;2.73;;;;;;;;;;4974432;28;20183;-52
2022/10/02 00:25:13;;;;;;;3.80;2.70;;;;;;;;;;4972181;28;20689;-53
2022/10/02 00:27:39;;;;;;;7.20;3.03;;;;;;;;;;4940117;28;20507;-55
2022/10/02 00:30:05;;;;;;;7.57;2.93;;;;;;;;;;4974245;28;20184;-54
2022/10/02 00:32:48;;;;;;;6.23;2.93;;;;;;;;;;4981240;28;20200;-53
2022/10/02 00:35:26;;;;;;;7.23;2.93;;;;;;;;;;4976240;28;20486;-53
2022/10/02 00:38:05;;;;;;;5.27;2.83;;;;;;;;;;4983000;28;20227;-54
2022/10/02 00:40:37;;;;;;;6.93;2.90;;;;;;;;;;4971964;28;20186;-52
2022/10/02 00:43:10;;;;;;;5.83;2.83;;;;;;;;;;4969913;28;20658;-54
2022/10/02 00:45:54;;;;;;;6.27;3.07;;;;;;;;;;4980662;28;20241;-52
2022/10/02 00:48:35;;;;;;;8.07;2.90;;;;;;;;;;4980755;28;20180;-53
2022/10/02 00:51:20;;;;;;;6.47;3.23;;;;;;;;;;4975473;28;20505;-52
2022/10/02 00:53:53;;;;;;;8.03;3.60;;;;;;;;;;4971480;28;20582;-53
2022/10/02 00:56:32;;;;;;;8.27;3.63;;;;;;;;;;4967363;28;20516;-52
2022/10/02 00:59:10;;;;;;;5.63;2.63;;;;;;;;;;4985743;28;20302;-53
2022/10/02 01:01:49;;;;;;;12.83;3.43;;;;;;;;;;4988391;28;20560;-52
2022/10/02 01:04:20;;;;;;;10.17;3.30;;;;;;;;;;4986445;28;20210;-53
2022/10/02 01:06:46;;;;;;;9.57;4.10;;;;;;;;;;4974263;28;20336;-53
2022/10/02 01:09:12;;;;;;;8.50;3.93;;;;;;;;;;4981926;28;20556;-53
2022/10/02 01:11:38;;;;;;;6.87;3.73;;;;;;;;;;4986130;28;20234;-52
2022/10/02 01:14:10;;;;;;;6.97;3.53;;;;;;;;;;4966743;28;20254;-53
2022/10/02 01:16:37;;;;;;;7.13;2.97;;;;;;;;;;4968403;28;20180;-53
2022/10/02 01:19:03;;;;;;;9.00;3.53;;;;;;;;;;4980147;28;20681;-53
2022/10/02 01:21:37;;;;;;;10.13;3.63;;;;;;;;;;4974623;28;20678;-53
2022/10/02 01:24:12;;;;;;;7.87;3.03;;;;;;;;;;4968722;28;20210;-53
2022/10/02 01:26:38;;;;;;;8.97;3.80;;;;;;;;;;4972211;28;20661;-53
2022/10/02 01:29:04;;;;;;;8.03;3.37;;;;;;;;;;4972104;28;20180;-53
2022/10/02 01:31:32;;;;;;;6.77;3.07;;;;;;;;;;4969785;28;20203;-53
2022/10/02 01:33:58;;;;;;;8.90;3.33;;;;;;;;;;4977609;28;20262;-54
2022/10/02 01:36:25;;;;;;;5.47;3.23;;;;;;;;;;4975536;28;20275;-53
2022/10/02 01:38:52;;;;;;;13.30;4.40;;;;;;;;;;4973863;28;20269;-53
2022/10/02 01:41:18;;;;;;;9.17;3.57;;;;;;;;;;4969445;28;20699;-53
2022/10/02 01:43:48;;;;;;;10.73;3.37;;;;;;;;;;4972101;28;20594;-53
2022/10/02 01:46:21;;;;;;;10.77;4.13;;;;;;;;;;4974603;28;20286;-52
2022/10/02 01:48:50;;;;;;;7.37;3.40;;;;;;;;;;4973083;28;20191;-53
2022/10/02 01:51:22;;;;;;;6.10;3.00;;;;;;;;;;4981761;28;20198;-53
2022/10/02 01:53:50;;;;;;;5.27;3.07;;;;;;;;;;4970697;28;20190;-53
2022/10/02 01:56:27;;;;;;;7.03;4.20;;;;;;;;;;4973909;28;21525;-53
2022/10/02 01:58:57;;;;;;;9.53;2.90;;;;;;;;;;4980113;28;20636;-53
2022/10/02 02:01:42;;;;;;;6.10;3.03;;;;;;;;;;4987009;28;20601;-53
2022/10/02 02:04:17;;;;;;;6.70;3.17;;;;;;;;;;4986708;28;20178;-53
2022/10/02 02:06:51;;;;;;;7.00;3.10;;;;;;;;;;4977784;28;20191;-53
2022/10/02 02:09:24;;;;;;;6.83;3.10;;;;;;;;;;4969548;28;20182;-53
2022/10/02 02:12:01;;;;;;;8.00;3.50;;;;;;;;;;4971629;28;20207;-53
2022/10/02 02:14:31;;;;;;;9.73;3.17;;;;;;;;;;4968764;28;20243;-53
2022/10/02 02:17:30;;;;;;;6.27;3.33;;;;;;;;;;4973595;28;20183;-54
2022/10/02 02:20:00;;;;;;;9.43;3.43;;;;;;;;;;4966978;28;20202;-52
2022/10/02 02:22:29;;;;;;;7.93;3.20;;;;;;;;;;4968456;28;20586;-54
2022/10/02 02:25:01;;;;;;;7.63;3.80;;;;;;;;;;4975721;28;20225;-53
2022/10/02 02:27:29;;;;;;;8.70;3.53;;;;;;;;;;4974409;28;20182;-53
2022/10/02 02:30:05;;;;;;;8.20;3.60;;;;;;;;;;4972570;28;20184;-53
2022/10/02 02:32:34;;;;;;;9.97;3.77;;;;;;;;;;4968768;28;20213;-54
2022/10/02 02:35:16;;;;;;;13.13;4.00;;;;;;;;;;4973191;28;20892;-53
2022/10/02 02:37:43;;;;;;;6.77;3.47;;;;;;;;;;4994507;28;20772;-53
2022/10/02 02:40:12;;;;;;;12.07;3.37;;;;;;;;;;4965019;28;20179;-53
2022/10/02 02:42:43;;;;;;;10.97;3.60;;;;;;;;;;4975381;28;20985;-53
2022/10/02 02:45:09;;;;;;;10.87;4.00;;;;;;;;;;4975480;28;20227;-53
2022/10/02 02:47:41;;;;;;;9.97;3.87;;;;;;;;;;4970490;28;20247;-52
2022/10/02 02:50:26;;;;;;;6.30;3.20;;;;;;;;;;4967116;28;20297;-53
2022/10/02 02:53:03;;;;;;;8.67;3.67;;;;;;;;;;4973078;28;20653;-53
2022/10/02 02:55:35;;;;;;;8.73;3.17;;;;;;;;;;4962447;28;20222;-53
2022/10/02 02:58:07;;;;;;;11.27;3.97;;;;;;;;;;4977913;28;20569;-53
2022/10/02 03:00:33;;;;;;;9.80;3.50;;;;;;;;;;4973669;28;20179;-53
2022/10/02 03:02:59;;;;;;;6.53;3.00;;;;;;;;;;4968459;28;20654;-54
2022/10/02 03:05:26;;;;;;;6.10;3.20;;;;;;;;;;4976271;28;20171;-53
2022/10/02 03:07:54;;;;;;;14.20;3.93;;;;;;;;;;4983408;28;20717;-52
2022/10/02 03:10:38;;;;;;;8.37;3.40;;;;;;;;;;4969159;28;20792;-53
2022/10/02 03:13:17;;;;;;;9.43;4.27;;;;;;;;;;4966430;28;20505;-53
2022/10/02 03:15:56;;;;;;;9.63;3.83;;;;;;;;;;4975902;28;20190;-53
2022/10/02 03:18:42;;;;;;;8.80;4.57;;;;;;;;;;4973259;28;20188;-52
2022/10/02 03:21:08;;;;;;;10.20;3.53;;;;;;;;;;4967547;28;20171;-53
2022/10/02 03:23:37;;;;;;;8.70;3.30;;;;;;;;;;4985008;28;20199;-52
2022/10/02 03:26:17;;;;;;;6.37;3.17;;;;;;;;;;4974493;28;20190;-54
2022/10/02 03:28:55;;;;;;;6.23;3.50;;;;;;;;;;4975200;28;20198;-53
2022/10/02 03:31:22;;;;;;;9.33;4.23;;;;;;;;;;4972825;28;20203;-53
2022/10/02 03:33:49;;;;;;;10.03;3.73;;;;;;;;;;4971197;28;20258;-53
2022/10/02 03:36:20;;;;;;;11.60;3.57;;;;;;;;;;4979874;28;20190;-52
2022/10/02 03:38:46;;;;;;;7.60;4.17;;;;;;;;;;4981924;28;20206;-53
2022/10/02 03:41:13;;;;;;;6.03;3.70;;;;;;;;;;4979019;28;20725;-52
2022/10/02 03:43:39;;;;;;;9.40;3.80;;;;;;;;;;4976241;28;20639;-53
2022/10/02 03:46:05;;;;;;;12.97;4.20;;;;;;;;;;4972779;28;20183;-52
2022/10/02 03:48:31;;;;;;;11.90;3.70;;;;;;;;;;4971872;28;20191;-53
2022/10/02 03:50:57;;;;;;;10.07;3.73;;;;;;;;;;4972522;28;20700;-53
2022/10/02 03:53:29;;;;;;;11.50;3.80;;;;;;;;;;4974399;28;20543;-52
2022/10/02 03:56:07;;;;;;;7.77;3.97;;;;;;;;;;4971481;28;20183;-52
2022/10/02 03:58:34;;;;;;;7.53;3.23;;;;;;;;;;4989122;28;20187;-53
2022/10/02 04:01:00;;;;;;;7.23;3.37;;;;;;;;;;4987050;28;20266;-52
2022/10/02 04:03:28;;;;;;;11.60;4.70;;;;;;;;;;4992594;28;20187;-52
2022/10/02 04:05:59;;;;;;;11.37;3.40;;;;;;;;;;4978797;28;20179;-52
2022/10/02 04:08:28;;;;;;;10.97;3.97;;;;;;;;;;4974999;28;20175;-52
2022/10/02 04:11:13;;;;;;;14.00;4.67;;;;;;;;;;4985420;28;20213;-53
2022/10/02 04:13:43;;;;;;;7.20;3.20;;;;;;;;;;4970396;28;20568;-52
2022/10/02 04:16:32;;;;;;;8.87;3.27;;;;;;;;;;4968398;28;20531;-53
2022/10/02 04:19:07;;;;;;;6.67;2.97;;;;;;;;;;4960006;28;20198;-52
2022/10/02 04:21:41;;;;;;;6.67;3.60;;;;;;;;;;4985051;28;20613;-52
2022/10/02 04:24:19;;;;;;;10.60;3.70;;;;;;;;;;4980225;28;20665;-52
2022/10/02 04:26:50;;;;;;;8.17;3.50;;;;;;;;;;4970232;28;20412;-52
2022/10/02 04:29:39;;;;;;;9.77;4.20;;;;;;;;;;4975379;28;20218;-52
2022/10/02 04:32:14;;;;;;;7.27;3.53;;;;;;;;;;4949955;28;20682;-53
2022/10/02 04:34:40;;;;;;;12.53;3.63;;;;;;;;;;4969718;28;20179;-52
2022/10/02 04:37:21;;;;;;;7.20;3.10;;;;;;;;;;4986743;28;20207;-52
2022/10/02 04:39:50;;;;;;;11.70;3.60;;;;;;;;;;4985860;28;20716;-52
2022/10/02 04:42:22;;;;;;;6.17;2.97;;;;;;;;;;4966536;28;20460;-52
2022/10/02 04:44:48;;;;;;;6.37;3.67;;;;;;;;;;4972071;28;20713;-53
2022/10/02 04:47:20;;;;;;;5.13;3.17;;;;;;;;;;4971593;28;20246;-52
2022/10/02 04:50:00;;;;;;;7.80;3.77;;;;;;;;;;4973560;28;20187;-53
2022/10/02 04:52:29;;;;;;;7.93;3.80;;;;;;;;;;4975777;28;20215;-52
2022/10/02 04:55:02;;;;;;;9.43;3.87;;;;;;;;;;4981517;28;20178;-53
2022/10/02 04:57:28;;;;;;;8.30;3.47;;;;;;;;;;4981668;28;20230;-54
2022/10/02 05:00:12;;;;;;;6.43;4.23;;;;;;;;;;4973352;28;20209;-53
2022/10/02 05:02:46;;;;;;;6.63;3.30;;;;;;;;;;4966554;28;20219;-53
2022/10/02 05:05:18;;;;;;;7.20;3.67;;;;;;;;;;4973821;28;20198;-53
2022/10/02 05:07:44;;;;;;;8.90;3.50;;;;;;;;;;4975492;28;20178;-53
2022/10/02 05:10:31;;;;;;;4.93;3.20;;;;;;;;;;4977998;28;20182;-53
2022/10/02 05:13:00;;;;;;;7.53;3.67;;;;;;;;;;4969828;28;20268;-53
2022/10/02 05:15:54;;;;;;;5.63;3.50;;;;;;;;;;4971049;28;20206;-53
2022/10/02 05:18:20;;;;;;;7.13;4.90;;;;;;;;;;4972966;28;20267;-53
2022/10/02 05:21:01;;;;;;;6.80;3.17;;;;;;;;;;4968923;28;20253;-53
2022/10/02 05:23:36;;;;;;;5.53;3.50;;;;;;;;;;4982752;28;20195;-53
2022/10/02 05:26:11;;;;;;;6.53;3.20;;;;;;;;;;4977471;28;20193;-53
2022/10/02 05:28:40;;;;;;;7.80;3.23;;;;;;;;;;4966405;28;20534;-53
2022/10/02 05:31:12;;;;;;;6.67;3.30;;;;;;;;;;4974623;28;20202;-53
2022/10/02 05:33:55;;;;;;;7.97;3.30;;;;;;;;;;4964784;28;20227;-53
2022/10/02 05:36:21;;;;;;;5.90;3.17;;;;;;;;;;4968514;28;20180;-55
2022/10/02 05:38:56;;;;;;;6.03;3.07;;;;;;;;;;4966018;28;20967;-52
2022/10/02 05:41:22;;;;;;;4.70;2.90;;;;;;;;;;4985186;28;20186;-53
2022/10/02 05:44:15;;;;;;;6.03;3.10;;;;;;;;;;4969432;28;20190;-52
2022/10/02 05:47:07;;;;;;;3.73;2.73;;;;;;;;;;4968995;28;20749;-53
2022/10/02 05:49:46;;;;;;;6.03;2.77;;;;;;;;;;4972305;28;20190;-53
2022/10/02 05:52:27;;;;;;;4.87;3.03;;;;;;;;;;4966675;28;20214;-53
2022/10/02 05:54:55;;;;;;;5.67;2.77;;;;;;;;;;4968364;28;20547;-53
2022/10/02 05:58:00;;;;;;;4.73;3.10;;;;;;;;;;4978732;28;20635;-53
2022/10/02 06:00:38;;;;;;;4.43;2.87;;;;;;;;;;4934464;29;20192;-53
2022/10/02 06:03:16;;;;;;;8.67;2.73;;;;;;;;;;4917279;29;20177;-52
2022/10/02 06:05:44;;;;;;;4.70;2.93;;;;;;;;;;4953401;28;20638;-54
2022/10/02 06:08:13;;;;;;;4.93;3.57;;;;;;;;;;4973540;28;20217;-54
2022/10/02 06:10:45;;;;;;;5.53;3.07;;;;;;;;;;4969408;28;20281;-54
2022/10/02 06:13:27;;;;;;;3.70;2.87;;;;;;;;;;4972958;28;20176;-53
2022/10/02 06:16:04;;;;;;;6.27;3.40;;;;;;;;;;4968225;28;20309;-53
2022/10/02 06:18:32;;;;;;;5.17;2.90;;;;;;;;;;4969311;28;20182;-53
2022/10/02 06:21:01;;;;;;;4.23;3.00;;;;;;;;;;4970102;28;20238;-53
2022/10/02 06:23:31;;;;;;;4.70;3.00;;;;;;;;;;4975396;28;20258;-54
2022/10/02 06:26:06;;;;;;;5.13;2.73;;;;;;;;;;4976307;28;20198;-53
2022/10/02 06:28:35;;;;;;;4.23;3.00;;;;;;;;;;4978891;28;20194;-54
2022/10/02 06:31:01;;;;;;;5.73;3.00;;;;;;;;;;4968475;28;20412;-53
2022/10/02 06:33:35;;;;;;;6.43;3.27;;;;;;;;;;4964968;28;20833;-53
2022/10/02 06:36:12;;;;;;;6.37;3.37;;;;;;;;;;4968465;28;20178;-53
2022/10/02 06:38:57;;;;;;;9.43;4.03;;;;;;;;;;4971754;28;20203;-53
2022/10/02 06:41:26;;;;;;;5.23;3.23;;;;;;;;;;4972440;28;20709;-53
2022/10/02 06:43:52;;;;;;;7.70;4.20;;;;;;;;;;4983715;28;20684;-54
2022/10/02 06:46:30;;;;;;;10.47;4.10;;;;;;;;;;4969498;28;20840;-53
2022/10/02 06:49:01;;;;;;;7.20;3.97;;;;;;;;;;4970515;28;20187;-53
2022/10/02 06:51:34;;;;;;;6.33;4.20;;;;;;;;;;5004331;28;20906;-53
2022/10/02 06:54:00;;;;;;;5.33;4.00;;;;;;;;;;4984296;28;20178;-54
2022/10/02 06:56:29;;;;;;;9.07;4.47;;;;;;;;;;5011407;28;20630;-53
2022/10/02 06:59:08;;;;;;;6.07;4.17;;;;;;;;;;4998259;28;20240;-54
2022/10/02 07:01:34;;;;;;;9.97;4.40;;;;;;;;;;4979551;28;20167;-56
2022/10/02 07:04:11;;;;;;;6.67;4.60;;;;;;;;;;4990842;28;20183;-53
2022/10/02 07:06:49;;;;;;;8.60;4.50;;;;;;;;;;4989848;28;20189;-53
2022/10/02 07:09:27;;;;;;;7.83;4.83;;;;;;;;;;4991183;28;20187;-53
2022/10/02 07:12:07;;;;;;;7.70;4.57;;;;;;;;;;4991449;28;20553;-53
2022/10/02 07:14:36;;;;;;;6.47;4.63;;;;;;;;;;4984446;28;20175;-53
2022/10/02 07:17:09;;;;;;;7.93;5.73;;;;;;;;;;4987827;28;20179;-53
2022/10/02 07:19:41;;;;;;;9.03;5.23;;;;;;;;;;4990583;28;20935;-53
2022/10/02 07:22:22;;;;;;;9.83;6.03;;;;;;;;;;4989173;28;20187;-53
2022/10/02 07:25:18;;;;;;;8.10;4.90;;;;;;;;;;4991034;28;20182;-53
2022/10/02 07:27:52;;;;;;;11.80;5.70;;;;;;;;;;4990137;28;20182;-53
2022/10/02 07:30:18;;;;;;;11.83;5.63;;;;;;;;;;4991289;28;20677;-54
2022/10/02 07:32:47;;;;;;;5.50;4.20;;;;;;;;;;4990338;28;20716;-53
2022/10/02 07:35:42;;;;;;;8.17;5.03;;;;;;;;;;4980437;28;20583;-53
2022/10/02 07:38:16;;;;;;;10.47;5.93;;;;;;;;;;4976688;28;20608;-53
2022/10/02 07:40:58;;;;;;;8.53;5.50;;;;;;;;;;4988772;28;20214;-54
2022/10/02 07:43:47;;;;;;;8.27;5.50;;;;;;;;;;4989683;28;20179;-53
2022/10/02 07:46:22;;;;;;;15.83;7.13;;;;;;;;;;4985883;28;20242;-53
2022/10/02 07:48:48;;;;;;;12.90;6.83;;;;;;;;;;4987911;28;20190;-53
2022/10/02 07:51:46;;;;;;;10.00;6.20;;;;;;;;;;4988851;28;20673;-53
2022/10/02 07:54:30;;;;;;;12.90;6.47;;;;;;;;;;4990605;28;20290;-54
2022/10/02 07:57:00;;;;;;;16.20;6.50;;;;;;;;;;4988404;28;20218;-53
2022/10/02 07:59:29;;;;;;;16.20;6.80;;;;;;;;;;4988769;28;20177;-53
2022/10/02 08:01:55;;;;;;;17.13;7.30;;;;;;;;;;4999671;28;20207;-52
2022/10/02 08:04:28;;;;;;;15.97;6.70;;;;;;;;;;4980903;28;20191;-53
2022/10/02 08:06:57;;;;;;;15.73;7.27;;;;;;;;;;4987526;28;20175;-53
2022/10/02 08:09:33;;;;;;;11.43;6.77;;;;;;;;;;4994201;28;20186;-53
2022/10/02 08:12:02;;;;;;;17.87;9.10;;;;;;;;;;4986797;28;20241;-53
2022/10/02 08:14:47;;;;;;;20.93;9.50;;;;;;;;;;4994944;28;20205;-53
2022/10/02 08:17:31;;;;;;;16.50;9.80;;;;;;;;;;4987078;28;20175;-53
2022/10/02 08:20:22;;;;;;;18.20;9.27;;;;;;;;;;4986293;28;21101;-52
2022/10/02 08:22:51;;;;;;;19.30;8.83;;;;;;;;;;4989803;28;20180;-52
2022/10/02 08:25:23;;;;;;;17.90;8.63;;;;;;;;;;4988045;28;20179;-52
2022/10/02 08:28:08;;;;;;;12.87;8.13;;;;;;;;;;4970914;28;20524;-52
2022/10/02 08:30:35;;;;;;;13.73;7.50;;;;;;;;;;4986659;28;20186;-53
2022/10/02 08:33:02;;;;;;;17.87;7.33;;;;;;;;;;5002016;28;20641;-53
2022/10/02 08:35:35;;;;;;;10.73;6.40;;;;;;;;;;4988762;28;20196;-52
2022/10/02 08:38:20;;;;;;;14.20;8.53;;;;;;;;;;4984436;28;20207;-52
2022/10/02 08:40:55;;;;;;;14.50;7.70;;;;;;;;;;4998136;28;20197;-53
2022/10/02 08:43:40;;;;;;;14.63;8.70;;;;;;;;;;4981463;28;20181;-52
2022/10/02 08:46:09;;;;;;;10.80;6.70;;;;;;;;;;4984409;28;20215;-52
2022/10/02 08:48:37;;;;;;;11.93;7.40;;;;;;;;;;4985702;28;20255;-53
2022/10/02 08:51:23;;;;;;;14.83;7.90;;;;;;;;;;4992786;28;20467;-53
2022/10/02 08:53:49;;;;;;;14.20;7.33;;;;;;;;;;4993726;28;20618;-52
2022/10/02 08:56:34;;;;;;;12.17;7.60;;;;;;;;;;4993857;28;20170;-52
2022/10/02 08:59:19;;;;;;;14.07;6.93;;;;;;;;;;4988168;28;20195;-52
2022/10/02 09:01:47;;;;;;;12.13;7.30;;;;;;;;;;4988297;28;20183;-52
2022/10/02 09:04:37;;;;;;;15.03;7.10;;;;;;;;;;4968261;28;20239;-52
2022/10/02 09:07:03;;;;;;;8.43;5.50;;;;;;;;;;4980809;28;20183;-52
2022/10/02 09:09:33;;;;;;;12.03;6.10;;;;;;;;;;4985081;28;20262;-52
2022/10/02 09:12:14;;;;;;;10.53;6.03;;;;;;;;;;5001464;28;20242;-52
2022/10/02 09:14:43;;;;;;;13.47;6.57;;;;;;;;;;4988671;28;20175;-52
2022/10/02 09:17:29;;;;;;;11.23;5.93;;;;;;;;;;4980596;28;20175;-52
2022/10/02 09:20:14;;;;;;;7.53;5.70;;;;;;;;;;5004393;28;20175;-52
2022/10/02 09:22:58;;;;;;;9.23;5.80;;;;;;;;;;4990877;28;20196;-52
2022/10/02 09:25:36;;;;;;;9.07;5.67;;;;;;;;;;4982048;28;20186;-52
2022/10/02 09:28:20;;;;;;;6.90;5.37;;;;;;;;;;5007282;28;20217;-52
2022/10/02 09:31:03;;;;;;;14.50;5.00;;;;;;;;;;5002130;28;20182;-51
2022/10/02 09:33:44;;;;;;;10.23;5.50;;;;;;;;;;4987157;28;20178;-52
2022/10/02 09:36:10;;;;;;;7.33;4.87;;;;;;;;;;5007058;28;20598;-52
2022/10/02 09:38:56;;;;;;;9.23;4.93;;;;;;;;;;4986429;28;20195;-51
2022/10/02 09:41:42;;;;;;;8.53;4.87;;;;;;;;;;4980744;28;20653;-53
2022/10/02 09:44:08;;;;;;;7.60;4.50;;;;;;;;;;4989447;28;20175;-52
2022/10/02 09:46:51;;;;;;;7.37;4.10;;;;;;;;;;4984979;28;20265;-52
2022/10/02 09:49:18;;;;;;;6.27;4.30;;;;;;;;;;4990440;28;20198;-53
2022/10/02 09:52:03;;;;;;;8.97;4.50;;;;;;;;;;4993241;28;20339;-52
2022/10/02 09:54:38;;;;;;;4.97;3.33;;;;;;;;;;4991601;28;20179;-52
2022/10/02 09:57:16;;;;;;;7.03;3.90;;;;;;;;;;4985346;28;20196;-53
2022/10/02 09:59:51;;;;;;;10.33;4.50;;;;;;;;;;4980078;28;20167;-52
2022/10/02 10:02:40;;;;;;;6.37;4.40;;;;;;;;;;4982559;28;20174;-52
2022/10/02 10:05:25;;;;;;;10.20;5.53;;;;;;;;;;4987657;28;20179;-52
2022/10/02 10:07:51;;;;;;;8.03;4.97;;;;;;;;;;4978191;28;20271;-53
2022/10/02 10:10:26;;;;;;;8.33;4.73;;;;;;;;;;4986796;28;20179;-52
2022/10/02 10:13:08;;;;;;;7.30;4.30;;;;;;;;;;4986193;28;20317;-53
2022/10/02 10:15:34;;;;;;;5.40;4.23;;;;;;;;;;4987071;28;20621;-52
2022/10/02 10:18:16;;;;;;;7.43;4.43;;;;;;;;;;4986894;28;20211;-52
2022/10/02 10:21:01;;;;;;;10.43;5.93;;;;;;;;;;4987833;28;20532;-53
2022/10/02 10:23:44;;;;;;;8.03;4.93;;;;;;;;;;4975661;28;20210;-53
2022/10/02 10:26:33;;;;;;;6.67;4.43;;;;;;;;;;4985287;28;20210;-53
2022/10/02 10:28:59;;;;;;;8.77;4.90;;;;;;;;;;4987150;28;20175;-54
2022/10/02 10:31:31;;;;;;;7.70;4.47;;;;;;;;;;4976905;28;20685;-53
2022/10/02 10:34:03;;;;;;;7.70;4.70;;;;;;;;;;4981012;28;20262;-53
2022/10/02 10:39:36;;;;;;;12.60;5.10;;;;;;;;;;4981499;28;20289;-53
2022/10/02 10:42:05;;;;;;;9.93;4.03;;;;;;;;;;4984311;28;20712;-53
2022/10/02 10:44:39;;;;;;;8.63;4.37;;;;;;;;;;4986744;28;20541;-52
2022/10/02 10:47:17;;;;;;;8.80;4.43;;;;;;;;;;4984764;28;20517;-53
2022/10/02 10:50:03;;;;;;;7.53;4.17;;;;;;;;;;4984722;28;20673;-53
2022/10/02 10:52:46;;;;;;;6.93;4.47;;;;;;;;;;4984416;28;20206;-53
2022/10/02 10:55:21;;;;;;;7.17;4.03;;;;;;;;;;4985730;28;20186;-52
2022/10/02 10:57:55;;;;;;;12.93;4.13;;;;;;;;;;4985718;28;20540;-52
2022/10/02 11:00:23;;;;;;;8.20;4.07;;;;;;;;;;4984118;28;20186;-52
2022/10/02 11:02:55;;;;;;;15.23;5.67;;;;;;;;;;4984752;28;20617;-52
2022/10/02 11:05:30;;;;;;;6.90;4.13;;;;;;;;;;4985263;28;20171;-53
2022/10/02 11:08:00;;;;;;;7.17;3.90;;;;;;;;;;4984556;28;20183;-53
2022/10/02 11:10:29;;;;;;;9.63;3.93;;;;;;;;;;4986964;28;20183;-53
2022/10/02 11:13:00;;;;;;;7.27;3.67;;;;;;;;;;4980850;28;20229;-53
2022/10/02 11:15:35;;;;;;;11.70;3.90;;;;;;;;;;4985616;28;20536;-53
2022/10/02 11:18:08;;;;;;;8.03;3.67;;;;;;;;;;4981800;28;20198;-54
2022/10/02 11:20:43;;;;;;;9.03;3.83;;;;;;;;;;4981171;28;20183;-53
2022/10/02 11:23:27;;;;;;;9.70;4.20;;;;;;;;;;4985578;28;20808;-52
2022/10/02 11:25:54;;;;;;;8.33;4.20;;;;;;;;;;4982710;28;20184;-52
2022/10/02 11:28:21;;;;;;;7.87;4.23;;;;;;;;;;4985220;28;20164;-53
2022/10/02 11:31:03;;;;;;;8.80;4.20;;;;;;;;;;4985612;28;20179;-53
2022/10/02 11:33:48;;;;;;;8.57;4.20;;;;;;;;;;4982847;28;20181;-53
2022/10/02 11:36:43;;;;;;;8.57;4.10;;;;;;;;;;4980131;28;20182;-53
2022/10/02 11:39:23;;;;;;;7.30;3.17;;;;;;;;;;4980599;28;20707;-52
2022/10/02 11:41:55;;;;;;;8.90;3.37;;;;;;;;;;4975854;28;20717;-52
2022/10/02 11:44:33;;;;;;;8.47;3.53;;;;;;;;;;4979821;28;20194;-53
2022/10/02 11:47:16;;;;;;;7.53;3.57;;;;;;;;;;4978365;28;20183;-52
2022/10/02 11:49:52;;;;;;;7.60;3.33;;;;;;;;;;4978327;28;20242;-52
2022/10/02 11:52:34;;;;;;;8.13;4.10;;;;;;;;;;4978288;28;20206;-52
2022/10/02 11:55:21;;;;;;;9.10;3.67;;;;;;;;;;4989745;28;20174;-53
2022/10/02 11:57:56;;;;;;;7.67;3.80;;;;;;;;;;4985486;28;20190;-54
2022/10/02 12:00:31;;;;;;;9.90;3.57;;;;;;;;;;4994462;28;20174;-52
2022/10/02 12:03:00;;;;;;;6.87;3.57;;;;;;;;;;4981474;28;20657;-53
2022/10/02 12:05:45;;;;;;;11.20;3.63;;;;;;;;;;4985522;28;20202;-53
2022/10/02 12:08:23;;;;;;;8.30;3.37;;;;;;;;;;4982482;28;20270;-53
2022/10/02 12:11:04;;;;;;;6.07;3.13;;;;;;;;;;4982964;28;20186;-52
2022/10/02 12:13:30;;;;;;;6.07;3.10;;;;;;;;;;4984811;28;20273;-52
2022/10/02 12:16:02;;;;;;;8.67;3.47;;;;;;;;;;4986979;28;20182;-52
2022/10/02 12:18:47;;;;;;;6.87;3.07;;;;;;;;;;4987706;28;20171;-52
2022/10/02 12:27:11;;;;;;;6.73;3.63;;;;;;;;;;4978092;28;20190;-54
2022/10/02 12:29:56;;;;;;;9.87;3.30;;;;;;;;;;4982389;28;20179;-53
2022/10/02 12:32:37;;;;;;;6.47;4.00;;;;;;;;;;4982220;28;20203;-52
2022/10/02 12:35:22;;;;;;;9.10;3.60;;;;;;;;;;4979377;28;20171;-52
2022/10/02 12:37:51;;;;;;;7.53;3.23;;;;;;;;;;4977590;28;20205;-53
2022/10/02 12:40:23;;;;;;;9.97;3.67;;;;;;;;;;4976140;28;20175;-52
2022/10/02 12:43:07;;;;;;;5.97;3.40;;;;;;;;;;4976851;28;20709;-53
2022/10/02 12:45:59;;;;;;;6.27;2.83;;;;;;;;;;4981639;28;20274;-53
2022/10/02 12:48:34;;;;;;;6.37;3.17;;;;;;;;;;4980128;28;20242;-53
2022/10/02 12:51:09;;;;;;;8.43;3.00;;;;;;;;;;4986220;28;20175;-54
2022/10/02 12:53:48;;;;;;;4.77;2.67;;;;;;;;;;4987591;28;20544;-53
2022/10/02 12:56:26;;;;;;;7.60;3.37;;;;;;;;;;4987916;28;20527;-54
2022/10/02 12:58:52;;;;;;;9.67;3.40;;;;;;;;;;4980868;28;20171;-54
2022/10/02 13:01:32;;;;;;;5.30;3.10;;;;;;;;;;4989562;28;20260;-52
2022/10/02 13:04:17;;;;;;;6.47;3.10;;;;;;;;;;4968353;28;20188;-54
2022/10/02 13:06:55;;;;;;;7.00;3.00;;;;;;;;;;4988662;28;20210;-53
2022/10/02 13:09:29;;;;;;;5.13;2.60;;;;;;;;;;4986045;28;20218;-53
2022/10/02 13:12:11;;;;;;;8.80;3.40;;;;;;;;;;4986638;28;20201;-52
2022/10/02 13:14:44;;;;;;;6.87;3.07;;;;;;;;;;4982525;28;20229;-53
2022/10/02 13:17:25;;;;;;;4.30;2.60;;;;;;;;;;4989115;28;20170;-54
2022/10/02 13:19:52;;;;;;;11.30;3.50;;;;;;;;;;4988125;28;20703;-53
2022/10/02 13:22:32;;;;;;;11.27;3.93;;;;;;;;;;4989040;28;20258;-54
2022/10/02 13:24:58;;;;;;;16.00;3.77;;;;;;;;;;4981734;28;20215;-54
2022/10/02 13:27:38;;;;;;;11.17;4.20;;;;;;;;;;4987526;28;20183;-54
2022/10/02 13:30:10;;;;;;;6.73;3.67;;;;;;;;;;4986210;28;20216;-54
2022/10/02 13:32:56;;;;;;;6.93;3.83;;;;;;;;;;4974900;28;20213;-54
2022/10/02 13:35:23;;;;;;;11.00;3.67;;;;;;;;;;4969594;28;20203;-53
2022/10/02 13:38:02;;;;;;;5.50;3.23;;;;;;;;;;4966805;28;20203;-53
2022/10/02 13:40:33;;;;;;;7.30;3.27;;;;;;;;;;4978638;28;20547;-54
2022/10/02 13:43:12;;;;;;;5.90;3.17;;;;;;;;;;4969199;28;20228;-54
2022/10/02 13:45:43;;;;;;;10.80;3.10;;;;;;;;;;4971971;28;21247;-53
2022/10/02 13:48:15;;;;;;;9.37;3.67;;;;;;;;;;4967181;28;20191;-53
2022/10/02 13:50:53;;;;;;;8.83;3.53;;;;;;;;;;4965988;28;20192;-54
2022/10/02 13:53:26;;;;;;;6.73;3.77;;;;;;;;;;4970103;28;20686;-53
2022/10/02 13:55:54;;;;;;;8.27;3.50;;;;;;;;;;4961954;28;20212;-53
2022/10/02 13:58:20;;;;;;;10.73;4.00;;;;;;;;;;4969299;28;20272;-53
2022/10/02 14:00:49;;;;;;;11.90;4.50;;;;;;;;;;4972659;28;20652;-53
2022/10/02 14:03:24;;;;;;;6.30;3.90;;;;;;;;;;4971288;28;20637;-53
2022/10/02 14:05:56;;;;;;;6.87;3.50;;;;;;;;;;4970005;28;20192;-53
2022/10/02 14:08:33;;;;;;;11.03;3.43;;;;;;;;;;4975471;28;20264;-54
2022/10/02 14:11:06;;;;;;;6.60;3.13;;;;;;;;;;4978446;28;20184;-54
2022/10/02 14:13:44;;;;;;;7.43;3.30;;;;;;;;;;4969139;28;20184;-55
2022/10/02 14:16:10;;;;;;;7.70;3.63;;;;;;;;;;4975304;28;20262;-54
2022/10/02 14:18:58;;;;;;;7.23;3.60;;;;;;;;;;4984986;28;20726;-53
2022/10/02 14:21:30;;;;;;;11.23;4.43;;;;;;;;;;4985252;28;20183;-54
2022/10/02 14:24:14;;;;;;;8.93;3.87;;;;;;;;;;4965662;28;20542;-54
2022/10/02 14:26:50;;;;;;;10.40;3.50;;;;;;;;;;4980747;28;20211;-53
2022/10/02 14:29:16;;;;;;;6.23;3.43;;;;;;;;;;4969639;28;20179;-53
2022/10/02 14:31:51;;;;;;;9.47;3.80;;;;;;;;;;4970218;28;20642;-54
2022/10/02 14:34:36;;;;;;;10.23;3.40;;;;;;;;;;4969256;28;20267;-52
2022/10/02 14:37:21;;;;;;;9.80;3.23;;;;;;;;;;4967389;28;20669;-53
2022/10/02 14:39:48;;;;;;;4.80;2.87;;;;;;;;;;4969091;28;20214;-55
2022/10/02 14:42:41;;;;;;;7.87;3.50;;;;;;;;;;4969408;28;20183;-54
2022/10/02 14:45:09;;;;;;;6.97;3.07;;;;;;;;;;4971909;28;20585;-56
2022/10/02 14:47:54;;;;;;;8.07;3.07;;;;;;;;;;4970391;28;20210;-57
2022/10/02 14:50:20;;;;;;;7.60;3.47;;;;;;;;;;4969155;28;20214;-56
2022/10/02 14:52:46;;;;;;;10.77;4.43;;;;;;;;;;4967999;28;20748;-57
2022/10/02 14:55:14;;;;;;;10.53;4.33;;;;;;;;;;4965415;28;20187;-55
2022/10/02 14:58:01;;;;;;;6.53;3.10;;;;;;;;;;4979735;28;20198;-56
2022/10/02 15:00:48;;;;;;;6.17;3.70;;;;;;;;;;4967198;28;20175;-56
2022/10/02 15:03:18;;;;;;;8.20;3.13;;;;;;;;;;4962750;28;20262;-55
2022/10/02 15:05:54;;;;;;;8.37;3.73;;;;;;;;;;4976823;28;20183;-56
2022/10/02 15:08:24;;;;;;;8.83;2.97;;;;;;;;;;4970334;28;20838;-56
2022/10/02 15:10:50;;;;;;;8.87;3.20;;;;;;;;;;4971853;28;20183;-56
2022/10/02 15:13:35;;;;;;;11.17;2.83;;;;;;;;;;4977962;28;20222;-56
2022/10/02 15:19:10;;;;;;;8.03;3.20;;;;;;;;;;4983821;28;20240;-57
2022/10/02 15:22:06;;;;;;;9.23;3.07;;;;;;;;;;4971202;28;20172;-56
2022/10/02 15:24:32;;;;;;;7.90;3.33;;;;;;;;;;4967561;28;20289;-57
2022/10/02 15:27:03;;;;;;;7.73;3.17;;;;;;;;;;4972687;28;20212;-56
2022/10/02 15:29:48;;;;;;;5.97;2.83;;;;;;;;;;4976298;28;20180;-56
2022/10/02 15:32:14;;;;;;;14.53;3.90;;;;;;;;;;4976920;28;20246;-57
2022/10/02 15:34:46;;;;;;;8.20;3.50;;;;;;;;;;4971398;28;20183;-57
2022/10/02 15:37:31;;;;;;;10.33;3.17;;;;;;;;;;4972847;28;20198;-56
2022/10/02 15:40:16;;;;;;;9.23;4.03;;;;;;;;;;4975848;28;20603;-55